createdAt,value
2023-04-16T00:01:07.032Z,88.85
2023-04-16T00:03:35.965Z,88.98
2023-04-16T00:06:05.087Z,90.73
2023-04-16T00:08:35.292Z,91.00
2023-04-16T00:11:03.918Z,94.40
2023-04-16T00:13:32.490Z,100.00
2023-04-16T00:16:01.235Z,100.00
2023-04-16T00:18:30.381Z,100.00
2023-04-16T00:20:59.724Z,100.00
2023-04-16T00:23:28.387Z,100.00
2023-04-16T00:25:58.811Z,100.00
2023-04-16T00:28:28.088Z,100.00
2023-04-16T00:30:57.243Z,100.00
2023-04-16T00:33:26.045Z,100.00
2023-04-16T00:35:54.778Z,100.00
2023-04-16T00:38:23.463Z,100.00
2023-04-16T00:40:52.175Z,100.00
2023-04-16T00:43:25.450Z,100.00
2023-04-16T00:45:56.257Z,100.00
2023-04-16T00:48:29.976Z,100.00
2023-04-16T00:50:58.616Z,100.00
2023-04-16T00:53:27.644Z,100.00
2023-04-16T00:55:57.882Z,100.00
2023-04-16T00:58:27.429Z,100.00
2023-04-16T01:00:56.834Z,100.00
2023-04-16T01:03:27.884Z,100.00
2023-04-16T01:05:57.901Z,100.00
2023-04-16T01:08:28.322Z,100.00
2023-04-16T01:10:56.906Z,100.00
2023-04-16T01:13:25.652Z,100.00
2023-04-16T01:15:54.347Z,100.00
2023-04-16T01:18:25.763Z,100.00
2023-04-16T01:20:54.415Z,100.00
2023-04-16T01:23:23.145Z,100.00
2023-04-16T01:25:51.776Z,100.00
2023-04-16T01:28:20.400Z,100.00
2023-04-16T01:30:49.377Z,100.00
2023-04-16T01:33:19.054Z,100.00
2023-04-16T01:35:47.656Z,100.00
2023-04-16T01:38:16.561Z,100.00
2023-04-16T01:40:46.711Z,100.00
2023-04-16T01:43:15.710Z,100.00
2023-04-16T01:45:44.526Z,100.00
2023-04-16T01:48:13.381Z,100.00
2023-04-16T01:50:42.462Z,100.00
2023-04-16T01:53:11.211Z,100.00
2023-04-16T01:55:40.046Z,100.00
2023-04-16T01:58:13.057Z,100.00
2023-04-16T02:00:41.983Z,100.00
2023-04-16T02:03:11.708Z,100.00
2023-04-16T02:05:40.494Z,100.00
2023-04-16T02:08:09.228Z,100.00
2023-04-16T02:10:37.951Z,100.00
2023-04-16T02:13:09.971Z,100.00
2023-04-16T02:15:44.812Z,100.00
2023-04-16T02:18:10.780Z,100.00
2023-04-16T02:20:43.988Z,100.00
2023-04-16T02:23:14.798Z,100.00
2023-04-16T02:25:45.278Z,100.00
2023-04-16T02:28:16.798Z,100.00
2023-04-16T02:30:45.892Z,100.00
2023-04-16T02:33:14.848Z,100.00
2023-04-16T02:35:43.730Z,100.00
2023-04-16T02:38:12.525Z,100.00
2023-04-16T02:40:41.420Z,100.00
2023-04-16T02:43:10.374Z,100.00
2023-04-16T02:45:39.082Z,100.00
2023-04-16T02:48:09.212Z,100.00
2023-04-16T02:50:39.661Z,100.00
2023-04-16T02:53:08.408Z,100.00
2023-04-16T02:55:37.276Z,100.00
2023-04-16T02:58:06.003Z,100.00
2023-04-16T03:00:34.883Z,100.00
2023-04-16T03:03:05.211Z,100.00
2023-04-16T03:05:33.779Z,100.00
2023-04-16T03:08:11.731Z,100.00
2023-04-16T03:10:41.691Z,100.00
2023-04-16T03:13:10.329Z,100.00
2023-04-16T03:15:39.129Z,100.00
2023-04-16T03:18:07.860Z,100.00
2023-04-16T03:20:38.355Z,100.00
2023-04-16T03:23:07.248Z,100.00
2023-04-16T03:25:36.721Z,100.00
2023-04-16T03:28:05.664Z,100.00
2023-04-16T03:30:34.355Z,100.00
2023-04-16T03:33:03.161Z,100.00
2023-04-16T03:35:32.520Z,100.00
2023-04-16T03:38:04.086Z,100.00
2023-04-16T03:40:32.879Z,100.00
2023-04-16T03:43:02.922Z,100.00
2023-04-16T03:45:31.595Z,100.00
2023-04-16T03:48:00.575Z,100.00
2023-04-16T03:50:29.394Z,100.00
2023-04-16T03:52:58.268Z,98.79
2023-04-16T03:55:26.944Z,98.43
2023-04-16T03:57:56.120Z,98.97
2023-04-16T04:00:24.892Z,97.66
2023-04-16T04:02:55.098Z,98.20
2023-04-16T04:05:24.091Z,97.44
2023-04-16T04:07:55.082Z,96.97
2023-04-16T04:10:23.866Z,95.96
2023-04-16T04:12:52.573Z,95.51
2023-04-16T04:15:21.284Z,94.02
2023-04-16T04:17:50.002Z,92.26
2023-04-16T04:20:18.858Z,89.07
2023-04-16T04:22:47.686Z,85.50
2023-04-16T04:25:17.960Z,84.48
2023-04-16T04:27:46.643Z,82.16
2023-04-16T04:30:15.289Z,81.96
2023-04-16T04:32:44.375Z,81.31
2023-04-16T04:35:13.082Z,79.74
2023-04-16T04:37:43.389Z,78.26
2023-04-16T04:40:17.230Z,77.27
2023-04-16T04:42:46.055Z,76.48
2023-04-16T04:45:14.905Z,75.66
2023-04-16T04:47:45.426Z,75.63
2023-04-16T04:50:14.085Z,75.59
2023-04-16T04:52:42.751Z,74.32
2023-04-16T04:55:11.516Z,73.34
2023-04-16T04:57:40.385Z,71.25
2023-04-16T05:00:11.056Z,70.24
2023-04-16T05:02:40.037Z,69.37
2023-04-16T05:05:12.284Z,68.87
2023-04-16T05:07:41.108Z,69.45
2023-04-16T05:10:10.616Z,67.97
2023-04-16T05:12:40.248Z,66.60
2023-04-16T05:15:09.872Z,66.78
2023-04-16T05:17:38.549Z,67.18
2023-04-16T05:20:08.574Z,66.52
2023-04-16T05:22:37.409Z,65.29
2023-04-16T05:25:06.480Z,65.47
2023-04-16T05:27:35.221Z,65.88
2023-04-16T05:30:04.276Z,66.80
2023-04-16T05:32:33.131Z,64.49
2023-04-16T05:35:03.531Z,63.02
2023-04-16T05:37:32.318Z,61.77
2023-04-16T05:40:01.010Z,59.83
2023-04-16T05:42:29.783Z,59.94
2023-04-16T05:45:02.806Z,58.14
2023-04-16T05:47:31.448Z,57.36
2023-04-16T05:50:00.313Z,57.55
2023-04-16T05:52:29.138Z,57.60
2023-04-16T05:54:59.454Z,57.95
2023-04-16T05:57:29.829Z,58.87
2023-04-16T05:59:58.562Z,58.51
2023-04-16T06:02:27.668Z,58.89
2023-04-16T06:04:59.225Z,59.28
2023-04-16T06:07:27.968Z,60.71
2023-04-16T06:09:56.585Z,60.27
2023-04-16T06:12:25.453Z,59.16
2023-04-16T06:14:55.955Z,57.77
2023-04-16T06:17:24.676Z,57.02
2023-04-16T06:19:54.933Z,57.50
2023-04-16T06:22:23.780Z,54.58
2023-04-16T06:24:52.567Z,54.71
2023-04-16T06:27:21.432Z,54.12
2023-04-16T06:29:50.624Z,53.38
2023-04-16T06:32:22.002Z,53.02
2023-04-16T06:34:52.335Z,52.11
2023-04-16T06:37:21.141Z,52.55
2023-04-16T06:39:50.052Z,52.01
2023-04-16T06:42:19.478Z,52.28
2023-04-16T06:44:48.486Z,53.73
2023-04-16T06:47:20.331Z,53.76
2023-04-16T06:49:49.091Z,54.66
2023-04-16T06:52:17.996Z,55.51
2023-04-16T06:54:46.829Z,53.86
2023-04-16T06:57:16.395Z,51.89
2023-04-16T06:59:45.089Z,51.54
2023-04-16T07:02:13.827Z,52.41
2023-04-16T07:04:42.551Z,52.75
2023-04-16T07:07:11.294Z,52.26
2023-04-16T07:09:40.288Z,52.60
2023-04-16T07:12:09.242Z,53.47
2023-04-16T07:14:38.084Z,52.39
2023-04-16T07:17:06.824Z,51.98
2023-04-16T07:19:37.102Z,51.53
2023-04-16T07:22:06.393Z,51.67
2023-04-16T07:24:36.026Z,50.95
2023-04-16T07:27:04.897Z,50.30
2023-04-16T07:29:33.629Z,49.94
2023-04-16T07:32:02.428Z,49.62
2023-04-16T07:34:33.092Z,49.47
2023-04-16T07:37:02.438Z,49.28
2023-04-16T07:39:31.744Z,49.24
2023-04-16T07:42:05.207Z,49.34
2023-04-16T07:44:34.231Z,50.26
2023-04-16T07:47:05.235Z,48.53
2023-04-16T07:49:36.075Z,46.74
2023-04-16T07:52:04.830Z,46.72
2023-04-16T07:54:33.551Z,45.96
2023-04-16T07:57:03.136Z,46.22
2023-04-16T07:59:31.876Z,45.88
2023-04-16T08:02:00.809Z,45.07
2023-04-16T08:04:30.060Z,44.42
2023-04-16T08:06:59.112Z,44.70
2023-04-16T08:09:29.005Z,44.54
2023-04-16T08:11:57.778Z,44.11
2023-04-16T08:14:26.397Z,45.18
2023-04-16T08:16:55.248Z,44.57
2023-04-16T08:19:26.844Z,47.96
2023-04-16T08:21:55.819Z,47.57
2023-04-16T08:24:24.645Z,47.45
2023-04-16T08:26:53.573Z,45.53
2023-04-16T08:29:24.136Z,45.32
2023-04-16T08:32:20.825Z,47.24
2023-04-16T08:34:28.471Z,46.60
2023-04-16T08:37:02.683Z,46.20
2023-04-16T08:39:31.998Z,45.67
2023-04-16T08:42:02.731Z,44.09
2023-04-16T08:44:34.541Z,42.90
2023-04-16T08:47:06.501Z,41.18
2023-04-16T08:49:40.434Z,41.34
2023-04-16T08:52:24.893Z,40.54
2023-04-16T08:55:02.696Z,39.40
2023-04-16T08:57:39.151Z,39.63
2023-04-16T09:05:40.918Z,40.19
2023-04-16T09:08:20.569Z,40.72
2023-04-16T09:10:50.591Z,42.09
2023-04-16T09:13:24.521Z,43.12
2023-04-16T09:15:59.305Z,43.12
2023-04-16T09:18:31.795Z,42.36
2023-04-16T09:21:01.317Z,44.01
2023-04-16T09:23:30.648Z,44.52
2023-04-16T09:26:04.304Z,44.26
2023-04-16T09:28:51.514Z,42.48
2023-04-16T09:31:21.060Z,41.39
2023-04-16T09:34:05.987Z,42.72
2023-04-16T09:36:39.260Z,42.12
2023-04-16T09:39:08.136Z,42.14
2023-04-16T09:41:40.221Z,41.06
2023-04-16T09:44:11.341Z,40.94
2023-04-16T09:46:54.415Z,39.52
2023-04-16T09:49:24.685Z,39.49
2023-04-16T09:51:57.253Z,39.25
2023-04-16T09:54:27.943Z,39.39
2023-04-16T09:57:01.537Z,40.16
2023-04-16T09:59:36.680Z,40.62
2023-04-16T10:02:14.674Z,39.47
2023-04-16T10:04:54.830Z,39.63
2023-04-16T10:07:43.370Z,40.12
2023-04-16T10:10:29.580Z,39.78
2023-04-16T10:12:54.025Z,39.79
2023-04-16T10:16:45.179Z,40.79
2023-04-16T10:18:06.156Z,39.57
2023-04-16T10:20:38.704Z,37.98
2023-04-16T10:23:22.128Z,37.92
2023-04-16T10:29:01.919Z,40.89
2023-04-16T10:31:41.500Z,41.56
2023-04-16T10:34:11.593Z,40.84
2023-04-16T10:36:42.591Z,39.91
2023-04-16T10:39:38.472Z,37.53
2023-04-16T10:42:22.942Z,36.53
2023-04-16T10:47:48.605Z,35.72
2023-04-16T10:50:23.872Z,34.64
2023-04-16T10:52:58.705Z,35.17
2023-04-16T10:58:43.247Z,35.06
2023-04-16T11:01:18.404Z,37.24
2023-04-16T11:03:50.360Z,38.44
2023-04-16T11:06:31.080Z,37.72
2023-04-16T11:09:06.006Z,38.09
2023-04-16T11:11:49.624Z,36.74
2023-04-16T11:15:06.444Z,37.02
2023-04-16T11:17:46.027Z,38.59
2023-04-16T11:20:23.767Z,37.28
2023-04-16T11:22:58.236Z,36.12
2023-04-16T11:25:34.644Z,35.30
2023-04-16T11:28:07.258Z,34.96
2023-04-16T11:30:55.676Z,35.67
2023-04-16T11:33:36.679Z,35.88
2023-04-16T11:36:16.594Z,35.15
2023-04-16T11:38:54.801Z,35.42
2023-04-16T11:41:25.790Z,34.35
2023-04-16T11:44:06.489Z,34.89
2023-04-16T11:46:59.372Z,33.98
2023-04-16T11:49:33.801Z,33.89
2023-04-16T11:52:12.224Z,33.57
2023-04-16T11:54:44.097Z,33.88
2023-04-16T11:57:29.332Z,35.05
2023-04-16T12:00:06.361Z,35.45
2023-04-16T12:02:44.690Z,36.41
2023-04-16T12:05:35.028Z,36.87
2023-04-16T12:08:06.434Z,37.25
2023-04-16T12:10:38.333Z,35.19
2023-04-16T12:13:18.080Z,35.07
2023-04-16T12:15:54.260Z,35.37
2023-04-16T12:18:27.326Z,34.65
2023-04-16T12:20:56.252Z,34.31
2023-04-16T12:23:34.286Z,32.97
2023-04-16T12:26:12.244Z,32.37
2023-04-16T12:28:41.823Z,32.19
2023-04-16T12:31:11.268Z,32.38
2023-04-16T12:33:40.073Z,31.20
2023-04-16T12:36:22.043Z,31.81
2023-04-16T12:38:50.811Z,32.26
2023-04-16T12:41:19.915Z,33.73
2023-04-16T12:43:48.679Z,35.08
2023-04-16T12:46:17.293Z,34.81
2023-04-16T12:48:45.979Z,35.00
2023-04-16T12:51:14.627Z,34.70
2023-04-16T12:53:43.325Z,34.96
2023-04-16T12:56:11.949Z,35.15
2023-04-16T12:58:40.596Z,36.63
2023-04-16T13:01:09.388Z,37.10
2023-04-16T13:03:38.670Z,38.42
2023-04-16T13:06:09.493Z,39.65
2023-04-16T13:08:42.389Z,40.64
2023-04-16T13:11:12.038Z,40.41
2023-04-16T13:13:41.237Z,41.28
2023-04-16T13:16:12.940Z,39.87
2023-04-16T13:18:45.155Z,39.58
2023-04-16T13:21:15.870Z,40.81
2023-04-16T13:23:45.100Z,41.58
2023-04-16T13:26:15.564Z,42.60
2023-04-16T13:28:44.454Z,41.74
2023-04-16T13:31:13.459Z,42.21
2023-04-16T13:33:42.554Z,42.47
2023-04-16T13:36:11.675Z,44.14
2023-04-16T13:38:42.554Z,45.94
2023-04-16T13:41:14.363Z,46.60
2023-04-16T13:43:43.458Z,48.18
2023-04-16T13:46:14.031Z,49.65
2023-04-16T13:48:44.739Z,50.64
2023-04-16T13:51:19.630Z,50.73
2023-04-16T13:53:48.369Z,51.57
2023-04-16T13:56:17.221Z,51.48
2023-04-16T13:58:46.402Z,50.81
2023-04-16T14:01:15.673Z,49.94
2023-04-16T14:03:44.823Z,49.81
2023-04-16T14:06:15.115Z,49.93
2023-04-16T14:08:43.848Z,49.49
2023-04-16T14:11:13.221Z,48.34
2023-04-16T14:13:42.610Z,48.64
2023-04-16T14:16:11.814Z,48.56
2023-04-16T14:18:42.540Z,47.96
2023-04-16T14:21:11.392Z,48.74
2023-04-16T14:23:40.125Z,52.68
2023-04-16T14:26:09.226Z,53.72
2023-04-16T14:28:38.393Z,56.23
2023-04-16T14:31:07.147Z,57.44
2023-04-16T14:34:04.596Z,58.60
2023-04-16T14:36:33.749Z,60.41
2023-04-16T14:39:02.908Z,59.84
2023-04-16T14:41:32.496Z,59.92
2023-04-16T14:44:01.436Z,61.48
2023-04-16T14:46:30.675Z,63.50
2023-04-16T14:48:59.392Z,64.66
2023-04-16T14:51:28.232Z,68.40
2023-04-16T14:53:57.860Z,73.98
2023-04-16T14:56:26.701Z,75.72
2023-04-16T14:58:55.603Z,80.41
2023-04-16T15:01:24.458Z,91.03
2023-04-16T15:03:55.098Z,100.00
2023-04-16T15:06:24.158Z,100.00
2023-04-16T15:08:52.900Z,100.00
2023-04-16T15:11:22.829Z,100.00
2023-04-16T15:13:51.515Z,100.00
2023-04-16T15:16:21.698Z,100.00
2023-04-16T15:18:51.209Z,100.00
2023-04-16T15:21:19.941Z,100.00
2023-04-16T15:23:48.591Z,100.00
2023-04-16T15:26:17.483Z,100.00
2023-04-16T15:28:46.224Z,100.00
2023-04-16T15:31:14.965Z,100.00
2023-04-16T15:33:43.725Z,100.00
2023-04-16T15:36:12.468Z,100.00
2023-04-16T15:38:44.244Z,100.00
2023-04-16T15:41:12.990Z,100.00
2023-04-16T15:43:43.287Z,100.00
2023-04-16T15:46:18.360Z,100.00
2023-04-16T15:48:48.135Z,100.00
2023-04-16T15:51:19.767Z,100.00
2023-04-16T15:53:50.614Z,100.00
2023-04-16T15:56:19.362Z,100.00
2023-04-16T15:58:48.155Z,100.00
2023-04-16T16:01:18.546Z,100.00
2023-04-16T16:03:54.684Z,100.00
2023-04-16T16:06:25.115Z,100.00
2023-04-16T16:09:09.147Z,100.00
2023-04-16T16:11:38.907Z,100.00
2023-04-16T16:14:18.641Z,100.00
2023-04-16T16:16:49.562Z,100.00
2023-04-16T16:19:20.056Z,100.00
2023-04-16T16:21:50.465Z,100.00
2023-04-16T16:24:19.473Z,100.00
2023-04-16T16:26:48.322Z,100.00
2023-04-16T16:29:17.149Z,100.00
2023-04-16T16:32:00.410Z,100.00
2023-04-16T16:34:29.275Z,100.00
2023-04-16T16:36:58.219Z,100.00
2023-04-16T16:39:26.885Z,100.00
2023-04-16T16:41:57.109Z,100.00
2023-04-16T16:44:26.181Z,100.00
2023-04-16T16:46:55.157Z,100.00
2023-04-16T16:49:23.824Z,100.00
2023-04-16T16:51:52.542Z,100.00
2023-04-16T16:54:27.259Z,100.00
2023-04-16T16:56:58.630Z,100.00
2023-04-16T16:59:27.568Z,100.00
2023-04-16T17:01:56.550Z,100.00
2023-04-16T17:04:25.668Z,100.00
2023-04-16T17:06:58.020Z,100.00
2023-04-16T17:09:26.949Z,100.00
2023-04-16T17:11:57.102Z,100.00
2023-04-16T17:14:26.127Z,100.00
2023-04-16T17:16:55.192Z,100.00
2023-04-16T17:19:24.000Z,100.00
2023-04-16T17:21:53.720Z,100.00
2023-04-16T17:24:22.400Z,100.00
2023-04-16T17:26:51.962Z,100.00
2023-04-16T17:29:22.325Z,100.00
2023-04-16T17:31:51.035Z,100.00
2023-04-16T17:34:20.373Z,100.00
2023-04-16T17:36:51.264Z,100.00
2023-04-16T17:39:21.098Z,100.00
2023-04-16T17:41:51.961Z,100.00
2023-04-16T17:44:20.992Z,100.00
2023-04-16T17:46:49.622Z,100.00
2023-04-16T17:49:20.958Z,100.00
2023-04-16T17:51:49.664Z,100.00
2023-04-16T17:54:18.466Z,100.00
2023-04-16T17:56:47.454Z,100.00
2023-04-16T17:59:18.011Z,100.00
2023-04-16T18:01:46.824Z,100.00
2023-04-16T18:04:16.075Z,100.00
2023-04-16T18:06:45.124Z,100.00
2023-04-16T18:09:14.367Z,100.00
2023-04-16T18:11:43.164Z,100.00
2023-04-16T18:14:13.664Z,100.00
2023-04-16T18:16:42.370Z,100.00
2023-04-16T18:19:12.168Z,100.00
2023-04-16T18:21:41.347Z,100.00
2023-04-16T18:24:10.616Z,100.00
2023-04-16T18:26:41.036Z,100.00
2023-04-16T18:29:10.506Z,100.00
2023-04-16T18:31:40.207Z,100.00
2023-04-16T18:34:08.960Z,100.00
2023-04-16T18:36:37.658Z,100.00
2023-04-16T18:39:07.476Z,100.00
2023-04-16T18:41:37.879Z,100.00
2023-04-16T18:44:08.056Z,100.00
2023-04-16T18:46:36.922Z,100.00
2023-04-16T18:49:05.857Z,100.00
2023-04-16T18:51:42.343Z,100.00
2023-04-16T18:54:13.184Z,100.00
2023-04-16T18:56:44.011Z,100.00
2023-04-16T18:59:13.080Z,100.00
2023-04-16T19:01:41.718Z,100.00
2023-04-16T19:07:25.409Z,100.00
2023-04-16T19:10:15.890Z,100.00
2023-04-16T19:12:46.473Z,100.00
2023-04-16T19:27:38.926Z,100.00
2023-04-16T19:30:24.591Z,100.00
2023-04-16T19:32:55.397Z,100.00
2023-04-16T19:35:35.924Z,100.00
2023-04-16T19:38:20.156Z,100.00
2023-04-16T19:44:04.131Z,100.00
2023-04-16T19:46:32.773Z,100.00
2023-04-16T19:49:01.454Z,100.00
2023-04-16T19:51:30.362Z,100.00
2023-04-16T19:53:59.121Z,100.00
2023-04-16T19:56:29.294Z,100.00
2023-04-16T19:59:02.782Z,100.00
2023-04-16T20:01:33.324Z,100.00
2023-04-16T20:04:02.147Z,100.00
2023-04-16T20:06:32.576Z,100.00
2023-04-16T20:09:01.357Z,100.00
2023-04-16T20:11:33.095Z,100.00
2023-04-16T20:20:56.982Z,100.00
2023-04-16T20:23:26.035Z,100.00
2023-04-16T20:25:54.798Z,100.00
2023-04-16T20:28:23.424Z,100.00
2023-04-16T20:30:52.302Z,100.00
2023-04-16T20:33:21.154Z,100.00
2023-04-16T20:35:52.449Z,100.00
2023-04-16T20:38:29.845Z,100.00
2023-04-16T20:47:39.616Z,100.00
2023-04-16T20:50:10.851Z,100.00
2023-04-16T20:53:02.211Z,100.00
2023-04-16T20:55:46.948Z,100.00
2023-04-16T20:58:32.733Z,100.00
2023-04-16T21:01:09.220Z,100.00
2023-04-16T21:03:51.765Z,100.00
2023-04-16T21:06:22.734Z,100.00
2023-04-16T21:08:53.458Z,100.00
2023-04-16T21:11:36.292Z,100.00
2023-04-16T21:14:06.404Z,100.00
2023-04-16T21:20:05.331Z,100.00
2023-04-16T21:22:54.894Z,100.00
2023-04-16T21:28:09.372Z,100.00
2023-04-16T21:30:43.703Z,100.00
2023-04-16T21:33:44.428Z,100.00
2023-04-16T21:39:36.990Z,100.00
2023-04-16T21:42:07.615Z,100.00
2023-04-16T21:44:44.379Z,100.00
2023-04-16T21:47:21.094Z,100.00
2023-04-16T21:49:52.918Z,100.00
2023-04-16T21:52:25.876Z,100.00
2023-04-16T21:54:54.771Z,100.00
2023-04-16T21:57:26.000Z,100.00
2023-04-16T21:59:54.927Z,100.00
2023-04-16T22:02:24.085Z,100.00
2023-04-16T22:04:53.194Z,100.00
2023-04-16T22:07:22.091Z,100.00
2023-04-16T22:09:53.388Z,100.00
2023-04-16T22:12:22.532Z,100.00
2023-04-16T22:15:02.794Z,100.00
2023-04-16T22:17:40.627Z,100.00
2023-04-16T22:20:11.805Z,100.00
2023-04-16T22:22:41.972Z,100.00
2023-04-16T22:25:12.073Z,100.00
2023-04-16T22:27:42.396Z,100.00
2023-04-16T22:30:11.826Z,100.00
2023-04-16T22:32:40.713Z,100.00
2023-04-16T22:35:10.244Z,100.00
2023-04-16T22:37:39.289Z,100.00
2023-04-16T22:40:10.526Z,100.00
2023-04-16T22:42:48.680Z,100.00
2023-04-16T22:45:17.854Z,100.00
2023-04-16T22:47:52.399Z,100.00
2023-04-16T22:50:27.008Z,100.00
2023-04-16T22:53:10.636Z,100.00
2023-04-16T22:55:34.182Z,100.00
2023-04-16T22:58:03.187Z,100.00
2023-04-16T23:00:33.805Z,100.00
2023-04-16T23:03:04.428Z,100.00
2023-04-16T23:05:33.868Z,100.00
2023-04-16T23:08:02.703Z,100.00
2023-04-16T23:10:31.450Z,100.00
2023-04-16T23:13:00.170Z,100.00
2023-04-16T23:15:30.750Z,100.00
2023-04-16T23:18:04.399Z,100.00
2023-04-16T23:20:36.158Z,100.00
2023-04-16T23:23:04.963Z,100.00
2023-04-16T23:25:33.853Z,100.00
2023-04-16T23:28:02.662Z,100.00
2023-04-16T23:30:31.403Z,100.00
2023-04-16T23:33:00.144Z,100.00
2023-04-16T23:35:28.907Z,100.00
2023-04-16T23:37:57.839Z,100.00
2023-04-16T23:40:26.740Z,100.00
2023-04-16T23:42:55.461Z,100.00
2023-04-16T23:45:24.530Z,100.00
2023-04-16T23:47:53.540Z,100.00
2023-04-16T23:50:22.482Z,100.00
2023-04-16T23:52:51.242Z,100.00
2023-04-16T23:55:23.424Z,100.00
2023-04-16T23:57:52.436Z,100.00
